Main page
METAR-TAF:

METAR-TAF

Airports :

Bamako, Mali

Bamako–Modibo Keïta International Airport

latitude: 12-32N, longitude: 007-57W, elevation: 380 m

Current weather observation

The report was made 37 minutes ago, at 18:30 UTC
Wind 6 kt from the Northeast
Temperature 28°C
Humidity 15%
Pressure 1013 hPa
Visibility: 8000 m

METAR: GABS 191830Z 04006KT 8000 NSC 28/M01 Q1013 NOSIG

Time: 19:07 (19:07 UTC)

Forecast

The report was made 1 hour and 47 minutes ago, at 17:20 UTC
Forecast valid from 19 at 18 UTC to 20 at 24 UTC
Wind 8 kt from the Northeast
Visibility: 8000 m

TAF: GABS 191720Z 1918/2024 04008KT 8000 NSC

Weather observations and forecasts of more than 4000 airports (METAR and TAF reports).

The available stations are represented by yellow and red dots on the map.

Hover mouse over dot to see the name of the station.

Then click to see weather observations and forecasts.

To change the map : click on the green buttons with a black cross to zoom in, on the green button with a dash to zoom out, or on the green arrows for adjacent maps.


METAR-TAF: